createdAt,value
2023-01-11T00:01:12.698Z,96536.84
2023-01-11T00:03:41.058Z,96535.34
2023-01-11T00:06:10.815Z,96538.06
2023-01-11T00:08:39.751Z,96530.63
2023-01-11T00:11:14.253Z,96536.63
2023-01-11T00:13:45.095Z,96531.97
2023-01-11T00:16:13.992Z,96529.34
2023-01-11T00:18:42.767Z,96521.75
2023-01-11T00:21:12.281Z,96519.22
2023-01-11T00:23:40.683Z,96520.16
2023-01-11T00:26:11.922Z,96516.06
2023-01-11T00:28:40.660Z,96522.84
2023-01-11T00:31:36.161Z,96517.03
2023-01-11T00:34:05.144Z,96514.59
2023-01-11T00:36:34.976Z,96509.56
2023-01-11T00:39:04.033Z,96518.00
2023-01-11T00:41:49.787Z,96516.44
2023-01-11T00:44:35.798Z,96522.31
2023-01-11T00:47:29.632Z,96524.03
2023-01-11T00:49:58.181Z,96520.84
2023-01-11T00:52:26.846Z,96525.97
2023-01-11T00:54:55.492Z,96515.50
2023-01-11T00:57:24.192Z,96523.91
2023-01-11T00:59:52.689Z,96508.84
2023-01-11T01:02:22.854Z,96515.72
2023-01-11T01:04:51.791Z,96514.13
2023-01-11T01:07:20.279Z,96506.56
2023-01-11T01:09:48.683Z,96514.03
2023-01-11T01:12:37.825Z,96502.38
2023-01-11T01:15:06.241Z,96506.47
2023-01-11T01:17:38.495Z,96499.81
2023-01-11T01:20:08.674Z,96491.50
2023-01-11T01:22:37.377Z,96494.84
2023-01-11T01:25:06.603Z,96493.16
2023-01-11T01:27:35.325Z,96489.81
2023-01-11T01:30:04.223Z,96499.09
2023-01-11T01:32:32.823Z,96498.22
2023-01-11T01:38:46.652Z,96488.03
2023-01-11T01:41:15.543Z,96495.56
2023-01-11T01:43:50.072Z,96490.78
2023-01-11T01:46:19.456Z,96479.19
2023-01-11T01:48:51.031Z,96470.91
2023-01-11T01:51:21.716Z,96471.84
2023-01-11T01:53:53.770Z,96471.06
2023-01-11T01:56:27.281Z,96468.59
2023-01-11T01:59:20.722Z,96463.69
2023-01-11T02:01:48.513Z,96462.13
2023-01-11T02:04:22.363Z,96464.81
2023-01-11T02:06:51.797Z,96463.94
2023-01-11T02:09:27.453Z,96454.06
2023-01-11T02:11:57.141Z,96458.22
2023-01-11T02:14:29.067Z,96452.44
2023-01-11T02:16:57.609Z,96466.63
2023-01-11T02:19:36.454Z,96462.47
2023-01-11T02:22:35.546Z,96460.03
2023-01-11T02:25:35.882Z,96462.59
2023-01-11T02:28:09.932Z,96464.22
2023-01-11T02:30:44.599Z,96465.13
2023-01-11T02:33:20.064Z,96459.34
2023-01-11T02:35:53.821Z,96456.91
2023-01-11T02:38:25.709Z,96459.50
2023-01-11T02:40:57.781Z,96457.13
2023-01-11T02:43:48.658Z,96453.75
2023-01-11T02:46:21.706Z,96454.19
2023-01-11T02:48:54.484Z,96442.56
2023-01-11T02:51:27.912Z,96445.84
2023-01-11T02:53:57.964Z,96428.44
2023-01-11T02:56:29.552Z,96430.75
2023-01-11T02:59:01.212Z,96429.78
2023-01-11T03:01:29.700Z,96434.72
2023-01-11T03:03:59.124Z,96437.22
2023-01-11T03:06:29.539Z,96433.00
2023-01-11T03:09:16.336Z,96428.06
2023-01-11T03:12:20.518Z,96434.78
2023-01-11T03:15:01.352Z,96428.06
2023-01-11T03:17:38.704Z,96428.09
2023-01-11T03:20:11.519Z,96424.75
2023-01-11T03:22:45.432Z,96429.69
2023-01-11T03:25:19.123Z,96424.72
2023-01-11T03:28:03.690Z,96428.06
2023-01-11T03:30:37.309Z,96415.63
2023-01-11T03:33:10.651Z,96411.41
2023-01-11T03:35:45.654Z,96407.16
2023-01-11T03:38:19.448Z,96398.88
2023-01-11T03:40:49.557Z,96405.63
2023-01-11T03:43:20.442Z,96400.59
2023-01-11T03:45:54.860Z,96394.78
2023-01-11T03:48:26.963Z,96392.25
2023-01-11T03:50:55.916Z,96392.16
2023-01-11T03:53:25.510Z,96392.91
2023-01-11T03:55:56.952Z,96394.56
2023-01-11T03:58:28.438Z,96380.34
2023-01-11T04:00:59.606Z,96390.31
2023-01-11T04:03:28.860Z,96385.19
2023-01-11T04:06:01.067Z,96385.19
2023-01-11T04:08:31.178Z,96378.53
2023-01-11T04:11:00.211Z,96381.88
2023-01-11T04:13:28.795Z,96380.16
2023-01-11T04:15:59.211Z,96376.88
2023-01-11T04:18:28.035Z,96374.44
2023-01-11T04:20:56.666Z,96374.38
2023-01-11T04:23:24.985Z,96288.75
2023-01-11T04:25:53.460Z,96371.13
2023-01-11T04:28:21.952Z,96373.63
2023-01-11T04:30:59.151Z,96374.44
2023-01-11T04:33:28.943Z,96381.19
2023-01-11T04:36:06.322Z,96348.94
2023-01-11T04:38:34.795Z,96377.03
2023-01-11T04:41:23.396Z,96378.72
2023-01-11T04:43:52.097Z,96372.06
2023-01-11T04:46:20.851Z,96375.41
2023-01-11T04:48:53.632Z,96371.28
2023-01-11T04:51:24.367Z,96365.50
2023-01-11T04:57:01.824Z,96369.84
2023-01-11T04:59:30.708Z,96373.19
2023-01-11T05:02:33.283Z,96374.03
2023-01-11T05:05:03.276Z,96368.22
2023-01-11T05:07:32.179Z,96360.56
2023-01-11T05:10:01.190Z,96362.16
2023-01-11T05:12:30.469Z,96360.38
2023-01-11T05:14:59.423Z,96358.56
2023-01-11T05:17:30.307Z,96360.16
2023-01-11T05:20:03.539Z,96359.19
2023-01-11T05:22:32.089Z,96364.91
2023-01-11T05:25:01.139Z,96360.63
2023-01-11T05:27:30.320Z,96358.84
2023-01-11T05:29:58.896Z,96355.41
2023-01-11T05:32:28.566Z,96356.06
2023-01-11T05:34:57.096Z,96358.41
2023-01-11T05:37:27.200Z,96347.31
2023-01-11T05:39:55.605Z,96338.03
2023-01-11T05:42:30.675Z,96334.63
2023-01-11T05:45:16.585Z,96293.19
2023-01-11T05:47:47.214Z,96323.50
2023-01-11T05:50:15.857Z,96324.97
2023-01-11T05:52:46.027Z,96326.47
2023-01-11T05:55:14.866Z,96324.00
2023-01-11T05:57:44.339Z,96325.50
2023-01-11T06:00:14.467Z,96328.78
2023-01-11T06:02:43.653Z,96319.50
2023-01-11T06:05:12.137Z,96319.50
2023-01-11T06:07:40.755Z,96314.75
2023-01-11T06:10:12.349Z,96309.88
2023-01-11T06:12:44.116Z,96309.03
2023-01-11T06:15:15.633Z,96313.97
2023-01-11T06:17:44.140Z,96316.66
2023-01-11T06:20:13.949Z,96314.97
2023-01-11T06:22:42.563Z,96314.81
2023-01-11T06:25:12.895Z,96311.34
2023-01-11T06:27:42.091Z,96306.97
2023-01-11T06:30:11.925Z,96313.59
2023-01-11T06:32:40.950Z,96286.44
2023-01-11T06:35:10.135Z,96318.56
2023-01-11T06:37:38.710Z,96318.50
2023-01-11T06:40:08.143Z,96330.16
2023-01-11T06:42:38.567Z,96343.63
2023-01-11T06:45:08.775Z,96323.59
2023-01-11T06:47:37.485Z,96324.22
2023-01-11T06:50:07.798Z,96328.47
2023-01-11T06:52:36.921Z,96324.06
2023-01-11T06:56:19.318Z,96318.78
2023-01-11T06:58:49.782Z,96330.31
2023-01-11T07:01:20.161Z,96326.91
2023-01-11T07:03:48.840Z,96335.13
2023-01-11T07:06:17.728Z,96331.72
2023-01-11T07:08:46.689Z,96325.53
2023-01-11T07:11:17.390Z,96328.72
2023-01-11T07:13:46.244Z,96327.53
2023-01-11T07:16:17.599Z,96319.88
2023-01-11T07:18:46.869Z,96322.03
2023-01-11T07:21:15.815Z,96321.88
2023-01-11T07:23:45.084Z,96323.53
2023-01-11T07:26:14.535Z,96333.63
2023-01-11T07:28:43.145Z,96324.44
2023-01-11T07:31:11.901Z,96329.72
2023-01-11T07:33:41.987Z,96326.41
2023-01-11T07:36:11.121Z,96325.16
2023-01-11T07:38:39.716Z,96324.38
2023-01-11T07:41:23.743Z,96320.97
2023-01-11T07:43:52.281Z,96319.88
2023-01-11T07:46:21.007Z,96318.03
2023-01-11T07:48:51.381Z,96319.63
2023-01-11T07:51:25.617Z,96315.41
2023-01-11T07:53:54.191Z,96306.75
2023-01-11T07:56:35.153Z,96314.06
2023-01-11T07:59:03.908Z,96295.53
2023-01-11T08:01:32.380Z,96297.88
2023-01-11T08:04:02.124Z,96296.03
2023-01-11T08:06:33.463Z,96290.72
2023-01-11T08:09:02.319Z,96280.25
2023-01-11T08:11:48.104Z,96285.69
2023-01-11T08:14:34.222Z,96274.44
2023-01-11T08:17:02.889Z,96265.63
2023-01-11T08:19:32.723Z,96263.69
2023-01-11T08:22:01.526Z,96259.88
2023-01-11T08:24:30.683Z,96251.59
2023-01-11T08:27:00.304Z,96242.28
2023-01-11T08:29:28.984Z,96244.31
2023-01-11T08:32:01.064Z,96234.88
2023-01-11T08:34:34.642Z,96229.03
2023-01-11T08:37:03.191Z,96228.06
2023-01-11T08:39:32.111Z,96232.38
2023-01-11T08:42:03.269Z,96236.53
2023-01-11T08:44:35.130Z,96225.81
2023-01-11T08:47:04.292Z,96231.59
2023-01-11T08:49:34.608Z,96228.81
2023-01-11T08:52:03.484Z,96223.56
2023-01-11T08:54:32.190Z,96231.50
2023-01-11T08:57:00.879Z,96229.16
2023-01-11T08:59:32.625Z,96242.41
2023-01-11T09:02:02.928Z,96247.78
2023-01-11T09:04:31.740Z,96253.72
2023-01-11T09:07:02.292Z,96240.63
2023-01-11T09:09:31.394Z,96239.50
2023-01-11T09:12:05.480Z,96244.25
2023-01-11T09:14:34.627Z,96235.97
2023-01-11T09:17:03.249Z,96234.81
2023-01-11T09:19:33.743Z,96239.66
2023-01-11T09:22:03.726Z,96236.94
2023-01-11T09:24:32.339Z,96240.06
2023-01-11T09:27:01.444Z,96232.22
2023-01-11T09:30:02.981Z,96236.59
2023-01-11T09:32:33.805Z,96237.41
2023-01-11T09:35:03.419Z,96229.44
2023-01-11T09:37:33.499Z,96218.03
2023-01-11T09:40:02.260Z,96216.09
2023-01-11T09:42:37.782Z,96212.06
2023-01-11T09:45:13.879Z,96203.19
2023-01-11T09:47:45.999Z,96206.16
2023-01-11T09:50:20.090Z,96196.31
2023-01-11T09:52:53.183Z,96204.75
2023-01-11T09:55:28.884Z,96198.78
2023-01-11T09:58:04.588Z,96192.53
2023-01-11T10:00:53.440Z,96190.00
2023-01-11T10:03:45.485Z,96186.50
2023-01-11T10:06:21.806Z,96175.22
2023-01-11T10:18:28.360Z,96172.56
2023-01-11T10:18:30.185Z,96171.13
2023-01-11T10:21:05.165Z,96171.25
2023-01-11T10:24:00.126Z,96169.22
2023-01-11T10:27:06.267Z,96174.31
2023-01-11T10:29:53.882Z,96181.56
2023-01-11T10:32:34.906Z,96185.53
2023-01-11T10:35:29.457Z,96190.66
2023-01-11T10:38:21.880Z,96194.81
2023-01-11T10:41:08.581Z,96183.50
2023-01-11T10:43:41.586Z,96131.53
2023-01-11T10:46:15.671Z,96197.97
2023-01-11T10:48:44.823Z,96191.75
2023-01-11T10:51:19.931Z,96200.44
2023-01-11T10:53:58.094Z,96193.28
2023-01-11T10:57:20.406Z,96194.84
2023-01-11T11:00:03.646Z,96178.44
2023-01-11T11:02:49.893Z,96188.75
2023-01-11T11:05:27.969Z,96181.22
2023-01-11T11:08:00.040Z,96179.53
2023-01-11T11:10:33.553Z,96181.97
2023-01-11T11:13:08.552Z,96174.31
2023-01-11T11:15:44.966Z,96145.34
2023-01-11T11:18:13.704Z,96167.66
2023-01-11T11:20:44.279Z,96166.38
2023-01-11T11:23:16.811Z,96146.25
2023-01-11T11:25:49.515Z,96135.31
2023-01-11T11:28:34.355Z,96133.88
2023-01-11T11:31:06.422Z,96124.56
2023-01-11T11:33:36.691Z,96124.13
2023-01-11T11:36:07.690Z,96118.69
2023-01-11T11:38:38.306Z,96108.91
2023-01-11T11:41:09.020Z,96106.09
2023-01-11T11:43:43.499Z,96099.38
2023-01-11T11:46:27.320Z,96097.44
2023-01-11T11:49:16.260Z,96085.84
2023-01-11T11:51:46.593Z,96086.19
2023-01-11T11:54:22.085Z,96079.06
2023-01-11T11:56:50.874Z,96076.94
2023-01-11T11:59:22.099Z,96077.31
2023-01-11T12:02:00.973Z,96063.34
2023-01-11T12:04:36.473Z,96071.84
2023-01-11T12:07:10.028Z,96069.38
2023-01-11T12:09:40.473Z,96069.97
2023-01-11T12:12:09.531Z,96057.78
2023-01-11T12:15:29.257Z,96064.28
2023-01-11T12:18:26.350Z,96054.66
2023-01-11T12:20:55.610Z,96049.72
2023-01-11T12:23:25.626Z,96046.25
2023-01-11T12:26:05.583Z,96038.44
2023-01-11T12:28:59.181Z,96036.84
2023-01-11T12:31:33.189Z,96032.66
2023-01-11T12:34:12.412Z,96025.94
2023-01-11T12:36:48.093Z,96027.13
2023-01-11T12:39:21.154Z,96027.56
2023-01-11T12:41:58.275Z,96025.69
2023-01-11T12:44:39.863Z,96017.53
2023-01-11T12:47:22.541Z,96018.34
2023-01-11T12:49:57.609Z,96016.69
2023-01-11T12:52:42.870Z,96006.03
2023-01-11T12:55:23.883Z,96010.75
2023-01-11T12:58:02.294Z,96007.72
2023-01-11T13:00:46.465Z,96009.00
2023-01-11T13:03:50.868Z,96005.75
2023-01-11T13:06:25.461Z,96002.97
2023-01-11T13:09:00.493Z,95993.75
2023-01-11T13:11:40.339Z,95989.03
2023-01-11T13:14:24.571Z,95982.31
2023-01-11T13:17:01.470Z,95982.78
2023-01-11T13:19:37.687Z,95982.31
2023-01-11T13:22:13.792Z,95982.00
2023-01-11T13:24:45.305Z,95979.19
2023-01-11T13:27:16.694Z,95983.69
2023-01-11T13:29:47.815Z,95977.94
2023-01-11T13:32:20.329Z,95975.56
2023-01-11T13:34:51.447Z,95974.13
2023-01-11T13:37:24.799Z,95976.97
2023-01-11T13:39:56.698Z,95981.09
2023-01-11T13:42:31.329Z,95978.88
2023-01-11T13:45:03.367Z,95988.91
2023-01-11T13:47:37.034Z,95987.81
2023-01-11T13:50:18.139Z,95999.59
2023-01-11T13:52:56.256Z,95996.66
2023-01-11T13:55:27.650Z,96002.19
2023-01-11T13:57:59.938Z,95999.03
2023-01-11T14:00:33.986Z,95999.44
2023-01-11T14:03:17.342Z,96003.13
2023-01-11T14:05:52.700Z,95998.22
2023-01-11T14:08:34.844Z,96010.06
2023-01-11T14:11:23.293Z,96005.56
2023-01-11T14:14:19.417Z,96001.41
2023-01-11T14:17:12.701Z,95998.22
2023-01-11T14:19:45.714Z,95998.56
2023-01-11T14:22:21.586Z,96002.31
2023-01-11T14:24:56.785Z,95996.91
2023-01-11T14:28:30.948Z,95989.75
2023-01-11T14:31:44.376Z,95990.88
2023-01-11T14:34:45.903Z,95989.88
2023-01-11T14:38:00.133Z,95986.34
2023-01-11T14:40:46.534Z,95995.22
2023-01-11T14:43:31.194Z,95993.66
2023-01-11T14:46:13.921Z,95995.38
2023-01-11T14:48:49.576Z,95996.50
2023-01-11T14:51:34.079Z,96005.13
2023-01-11T14:54:06.207Z,96003.63
2023-01-11T14:56:51.345Z,95973.50
2023-01-11T14:59:34.711Z,95995.47
2023-01-11T15:02:25.930Z,95995.56
2023-01-11T15:05:28.679Z,95996.44
2023-01-11T15:08:11.807Z,95998.16
2023-01-11T15:10:46.637Z,95995.81
2023-01-11T15:13:21.070Z,95987.47
2023-01-11T15:16:35.200Z,95995.00
2023-01-11T15:19:07.161Z,95988.50
2023-01-11T15:21:40.905Z,95980.59
2023-01-11T15:24:22.868Z,95991.50
2023-01-11T15:26:52.060Z,95986.53
2023-01-11T15:29:27.564Z,95992.63
2023-01-11T15:32:08.907Z,95992.81
2023-01-11T15:34:45.376Z,95993.09
2023-01-11T15:37:41.399Z,95988.13
2023-01-11T15:40:19.533Z,95987.78
2023-01-11T15:43:19.337Z,95996.94
2023-01-11T15:46:38.827Z,96005.66
2023-01-11T15:49:51.425Z,95996.88
2023-01-11T15:52:56.628Z,95998.00
2023-01-11T15:55:58.431Z,96000.72
2023-01-11T15:58:52.601Z,96002.16
2023-01-11T16:01:24.212Z,95994.94
2023-01-11T16:04:06.021Z,96004.56
2023-01-11T16:06:41.852Z,95989.94
2023-01-11T16:09:38.379Z,96010.19
2023-01-11T16:12:41.311Z,96013.66
2023-01-11T16:15:29.409Z,96006.03
2023-01-11T16:18:14.267Z,96014.44
2023-01-11T16:20:45.287Z,96007.09
2023-01-11T16:23:21.852Z,96008.56
2023-01-11T16:25:56.741Z,96004.38
2023-01-11T16:28:26.874Z,96012.91
2023-01-11T16:31:00.140Z,96001.94
2023-01-11T16:33:29.887Z,96006.22
2023-01-11T16:36:10.731Z,96002.03
2023-01-11T16:38:47.374Z,95999.47
2023-01-11T16:41:16.933Z,96001.28
2023-01-11T16:44:11.274Z,96002.41
2023-01-11T16:47:17.126Z,96003.31
2023-01-11T16:49:49.443Z,95998.41
2023-01-11T16:52:39.318Z,96010.38
2023-01-11T16:55:26.453Z,96005.31
2023-01-11T16:57:58.950Z,96009.56
2023-01-11T17:00:32.750Z,96010.75
2023-01-11T17:03:06.026Z,96007.47
2023-01-11T17:05:34.666Z,96008.31
2023-01-11T17:08:26.123Z,96006.66
2023-01-11T17:10:57.110Z,96000.16
2023-01-11T17:13:53.539Z,96007.84
2023-01-11T17:16:25.971Z,96014.75
2023-01-11T17:18:55.651Z,95996.75
2023-01-11T17:21:25.955Z,96016.56
2023-01-11T17:23:58.342Z,96022.38
2023-01-11T17:26:30.268Z,96018.09
2023-01-11T17:29:02.726Z,96030.78
2023-01-11T17:31:33.888Z,95946.13
2023-01-11T17:34:05.542Z,96031.06
2023-01-11T17:36:34.503Z,96026.97
2023-01-11T17:39:03.719Z,96030.16
2023-01-11T17:41:51.275Z,96032.69
2023-01-11T17:44:38.765Z,96041.22
2023-01-11T17:47:12.894Z,96039.59
2023-01-11T17:49:41.716Z,96043.78
2023-01-11T17:52:12.357Z,96035.31
2023-01-11T17:54:41.083Z,96044.31
2023-01-11T17:57:11.844Z,96044.22
2023-01-11T17:59:40.813Z,96041.50
2023-01-11T18:02:14.465Z,96047.50
2023-01-11T18:04:44.933Z,96039.78
2023-01-11T18:07:17.350Z,96045.88
2023-01-11T18:09:47.144Z,96053.22
2023-01-11T18:12:21.160Z,96049.03
2023-01-11T18:14:51.652Z,96056.31
2023-01-11T18:17:32.326Z,96046.50
2023-01-11T18:20:01.172Z,96056.22
2023-01-11T18:22:31.403Z,96056.47
2023-01-11T18:25:00.583Z,96050.47
2023-01-11T18:27:32.910Z,96060.88
2023-01-11T18:30:06.361Z,96049.47
2023-01-11T18:32:39.074Z,96056.09
2023-01-11T18:35:17.648Z,96039.75
2023-01-11T18:37:47.478Z,96058.16
2023-01-11T18:40:17.306Z,96054.69
2023-01-11T18:42:53.160Z,96051.34
2023-01-11T18:45:25.191Z,96049.59
2023-01-11T18:47:54.092Z,96054.53
2023-01-11T18:50:24.079Z,96053.81
2023-01-11T18:52:52.871Z,96058.16
2023-01-11T18:55:21.538Z,96065.19
2023-01-11T18:57:51.781Z,96070.38
2023-01-11T19:00:20.990Z,96067.81
2023-01-11T19:05:57.939Z,96076.28
2023-01-11T19:08:26.477Z,96085.09
2023-01-11T19:10:56.170Z,96088.25
2023-01-11T19:13:26.961Z,96079.59
2023-01-11T19:15:55.963Z,96082.97
2023-01-11T19:18:26.868Z,96087.13
2023-01-11T19:20:55.746Z,96088.69
2023-01-11T19:23:29.749Z,96091.22
2023-01-11T19:25:58.591Z,96102.16
2023-01-11T19:28:28.783Z,96096.16
2023-01-11T19:30:57.752Z,96099.44
2023-01-11T19:33:26.880Z,96109.59
2023-01-11T19:35:55.340Z,96109.59
2023-01-11T19:38:49.439Z,96117.34
2023-01-11T19:41:18.151Z,96124.31
2023-01-11T19:44:03.915Z,96124.88
2023-01-11T19:46:35.335Z,96120.72
2023-01-11T19:49:06.540Z,96133.44
2023-01-11T19:51:36.288Z,96133.53
2023-01-11T19:54:04.887Z,96132.91
2023-01-11T19:56:33.908Z,96140.56
2023-01-11T19:59:04.207Z,96138.00
2023-01-11T20:01:32.977Z,96138.16
2023-01-11T20:04:04.812Z,96145.75
2023-01-11T20:06:34.013Z,96142.47
2023-01-11T20:09:03.276Z,96139.81
2023-01-11T20:11:34.010Z,96140.72
2023-01-11T20:14:04.456Z,96139.81
2023-01-11T20:16:33.673Z,96137.38
2023-01-11T20:19:05.943Z,96142.47
2023-01-11T20:21:35.438Z,96145.75
2023-01-11T20:24:04.517Z,96147.06
2023-01-11T20:26:34.456Z,96150.53
2023-01-11T20:29:06.725Z,96156.06
2023-01-11T20:31:35.954Z,96158.88
2023-01-11T20:34:07.736Z,96160.97
2023-01-11T20:36:39.463Z,96163.41
2023-01-11T20:39:09.728Z,96169.78
2023-01-11T20:41:51.278Z,96176.94
2023-01-11T20:44:35.831Z,96173.47
2023-01-11T20:47:04.321Z,96183.66
2023-01-11T20:49:32.955Z,96172.75
2023-01-11T20:52:01.535Z,96171.66
2023-01-11T20:54:32.121Z,96174.56
2023-01-11T20:57:05.780Z,96190.31
2023-01-11T20:59:36.296Z,96182.47
2023-01-11T21:02:07.551Z,96189.38
2023-01-11T21:04:36.647Z,96196.84
2023-01-11T21:07:06.547Z,96207.03
2023-01-11T21:09:42.258Z,96221.03
2023-01-11T21:12:18.733Z,96209.47
2023-01-11T21:14:48.672Z,96213.56
2023-01-11T21:17:17.962Z,96203.75
2023-01-11T21:19:46.430Z,96224.06
2023-01-11T21:22:15.210Z,96207.31
2023-01-11T21:24:44.675Z,96214.53
2023-01-11T21:27:13.534Z,96211.44
2023-01-11T21:29:42.221Z,96209.06
2023-01-11T21:32:12.436Z,96220.28
2023-01-11T21:34:42.455Z,96211.06
2023-01-11T21:37:11.195Z,96223.81
2023-01-11T21:39:39.654Z,96222.28
2023-01-11T21:42:08.349Z,96224.94
2023-01-11T21:44:37.120Z,96224.94
2023-01-11T21:47:07.211Z,96226.56
2023-01-11T21:49:37.273Z,96230.75
2023-01-11T21:52:06.163Z,96229.09
2023-01-11T21:54:34.915Z,96223.00
2023-01-11T21:57:03.685Z,96218.81
2023-01-11T21:59:51.740Z,96227.28
2023-01-11T22:02:20.554Z,96228.38
2023-01-11T22:04:54.053Z,96222.75
2023-01-11T22:07:22.827Z,96228.72
2023-01-11T22:10:04.078Z,96230.38
2023-01-11T22:12:45.347Z,96244.09
2023-01-11T22:15:14.072Z,96237.25
2023-01-11T22:17:43.451Z,96247.44
2023-01-11T22:20:17.850Z,96250.91
2023-01-11T22:22:49.150Z,96239.66
2023-01-11T22:25:18.074Z,96238.75
2023-01-11T22:27:46.729Z,96242.84
2023-01-11T22:30:16.022Z,96249.56
2023-01-11T22:32:44.562Z,96259.75
2023-01-11T22:35:14.599Z,96244.47
2023-01-11T22:37:43.620Z,96244.28
2023-01-11T22:40:13.357Z,96251.66
2023-01-11T22:42:42.415Z,96255.09
2023-01-11T22:45:12.362Z,96254.91
2023-01-11T22:47:44.615Z,96254.56
2023-01-11T22:50:14.993Z,96248.63
2023-01-11T22:52:43.845Z,96248.53
2023-01-11T22:55:12.844Z,96237.25
2023-01-11T22:57:41.511Z,96232.34
2023-01-11T23:00:12.500Z,96237.88
2023-01-11T23:02:40.840Z,96231.78
2023-01-11T23:05:09.909Z,96227.59
2023-01-11T23:07:40.074Z,96228.53
2023-01-11T23:10:10.368Z,96230.16
2023-01-11T23:12:56.289Z,96223.44
2023-01-11T23:15:24.892Z,96217.59
2023-01-11T23:17:53.618Z,96211.78
2023-01-11T23:20:22.940Z,96210.97
2023-01-11T23:22:52.770Z,96212.72
2023-01-11T23:25:21.491Z,96217.41
2023-01-11T23:27:50.451Z,96218.78
2023-01-11T23:30:19.830Z,96214.03
2023-01-11T23:32:48.725Z,96221.22
2023-01-11T23:35:17.580Z,96215.03
2023-01-11T23:37:46.720Z,96213.38
2023-01-11T23:40:17.311Z,96204.84
2023-01-11T23:42:44.898Z,96212.66
2023-01-11T23:45:13.743Z,96213.56
2023-01-11T23:47:41.208Z,96217.75
2023-01-11T23:50:11.214Z,96233.88
2023-01-11T23:52:39.850Z,96218.56
2023-01-11T23:55:09.311Z,96236.50
2023-01-11T23:57:59.923Z,96229.09
